Time;durP1;ratioP1;P1;durP2;ratioP2;P2;SDS_P1;SDS_P2;PMS_P1;PMS_P2;Temp;Humidity;BMP_temperature;BMP_pressure;BME280_temperature;BME280_humidity;BME280_pressure;Samples;Min_cycle;Max_cycle;Signal;HPM_P1;HPM_P2
2021/12/11 00:01:10;;;;;;;20.10;16.88;;;5.70;99.90;;;;;;5016698;28;20331;-67
2021/12/11 00:03:39;;;;;;;21.05;17.45;;;5.80;99.90;;;;;;5015853;28;20022;-67
2021/12/11 00:06:11;;;;;;;22.95;17.67;;;5.90;99.90;;;;;;5016512;28;20022;-67
2021/12/11 00:08:38;;;;;;;21.73;16.55;;;5.90;99.90;;;;;;5016753;28;20033;-67
2021/12/11 00:11:20;;;;;;;19.50;16.13;;;5.90;99.90;;;;;;5016569;28;20075;-67
2021/12/11 00:13:46;;;;;;;;;;;5.80;99.90;;;;;;5015970;28;20347;-67
2021/12/11 00:16:18;;;;;;;19.23;14.90;;;5.80;99.90;;;;;;5016357;28;19931;-67
2021/12/11 00:18:50;;;;;;;17.90;15.75;;;5.70;99.90;;;;;;5016509;28;20030;-67
2021/12/11 00:21:18;;;;;;;18.23;14.60;;;5.80;99.90;;;;;;5016415;28;20034;-67
2021/12/11 00:23:55;;;;;;;16.75;13.95;;;5.90;99.90;;;;;;5016236;28;20102;-67
2021/12/11 00:26:34;;;;;;;17.95;14.52;;;6.00;99.90;;;;;;5015969;28;20045;-67
2021/12/11 00:29:01;;;;;;;18.50;14.65;;;6.10;99.90;;;;;;4999118;28;20370;-68
2021/12/11 00:31:28;;;;;;;17.60;14.25;;;6.00;99.90;;;;;;5016577;28;20489;-67
2021/12/11 00:33:55;;;;;;;17.65;15.05;;;6.10;99.90;;;;;;5015348;28;20045;-67
2021/12/11 00:36:24;;;;;;;18.20;14.63;;;6.10;99.90;;;;;;5015778;28;20139;-67
2021/12/11 00:38:52;;;;;;;16.40;14.60;;;6.20;99.90;;;;;;5015361;28;20022;-67
2021/12/11 00:41:21;;;;;;;17.08;14.40;;;6.20;99.90;;;;;;5016458;28;20041;-67
2021/12/11 00:43:49;;;;;;;15.43;13.48;;;6.10;99.90;;;;;;5015797;28;20118;-67
2021/12/11 00:46:26;;;;;;;18.17;14.20;;;6.10;99.90;;;;;;4998821;28;20428;-67
2021/12/11 00:48:53;;;;;;;17.45;13.93;;;6.00;99.90;;;;;;5015384;28;20049;-67
2021/12/11 00:51:22;;;;;;;14.82;13.02;;;6.00;99.90;;;;;;5015036;28;20283;-67
2021/12/11 00:53:56;;;;;;;15.48;12.77;;;6.00;99.90;;;;;;5015008;28;20026;-67
2021/12/11 00:56:36;;;;;;;15.80;12.57;;;5.90;99.90;;;;;;5015066;28;20113;-67
2021/12/11 00:59:09;;;;;;;14.85;12.32;;;5.70;99.90;;;;;;5015682;28;20029;-67
2021/12/11 01:01:58;;;;;;;16.05;12.45;;;5.60;99.90;;;;;;5014863;28;20090;-67
2021/12/11 01:04:29;;;;;;;14.57;12.60;;;5.70;99.90;;;;;;5014846;28;20054;-67
2021/12/11 01:06:57;;;;;;;14.68;12.15;;;5.90;99.90;;;;;;5014896;28;20037;-67
2021/12/11 01:09:41;;;;;;;14.60;12.70;;;5.90;99.90;;;;;;5015512;28;20109;-67
2021/12/11 01:12:14;;;;;;;15.48;12.55;;;5.90;99.90;;;;;;5014930;28;20037;-67
2021/12/11 01:14:51;;;;;;;;;;;5.60;99.90;;;;;;5016236;28;20432;-67
2021/12/11 01:17:23;;;;;;;15.80;12.52;;;5.50;99.90;;;;;;5014647;28;19925;-67
2021/12/11 01:19:59;;;;;;;16.35;12.45;;;5.60;99.90;;;;;;5014798;28;20030;-68
2021/12/11 01:22:34;;;;;;;15.93;12.02;;;5.50;99.90;;;;;;5015485;28;20054;-67
2021/12/11 01:25:11;;;;;;;16.02;12.70;;;5.30;99.90;;;;;;5015949;28;20064;-68
2021/12/11 01:27:42;;;;;;;16.95;13.32;;;5.10;99.90;;;;;;5015342;28;20355;-68
2021/12/11 01:30:13;;;;;;;17.40;14.10;;;5.00;99.90;;;;;;5014573;28;20053;-68
2021/12/11 01:32:40;;;;;;;17.77;14.38;;;4.90;99.90;;;;;;5014551;28;20038;-68
2021/12/11 01:35:09;;;;;;;19.00;15.35;;;4.90;99.90;;;;;;5014188;28;20082;-68
2021/12/11 01:37:35;;;;;;;21.23;15.85;;;5.10;99.90;;;;;;5014950;28;20107;-68
2021/12/11 01:40:05;;;;;;;20.60;15.75;;;5.20;99.90;;;;;;5015051;28;20295;-68
2021/12/11 01:42:33;;;;;;;21.15;15.38;;;5.30;99.90;;;;;;5014194;28;20275;-68
2021/12/11 01:45:04;;;;;;;21.90;14.98;;;5.20;99.90;;;;;;5014151;28;20065;-68
2021/12/11 01:47:33;;;;;;;18.75;14.57;;;5.00;99.90;;;;;;5015159;28;20427;-68
2021/12/11 01:50:10;;;;;;;20.33;15.77;;;5.10;99.90;;;;;;5014946;28;20294;-68
2021/12/11 01:52:42;;;;;;;19.70;15.98;;;5.30;99.90;;;;;;5014914;28;20298;-68
2021/12/11 01:55:35;;;;;;;24.27;15.77;;;5.40;99.90;;;;;;5014133;28;20030;-68
2021/12/11 01:58:03;;;;;;;20.90;15.45;;;5.40;99.90;;;;;;5012098;28;20129;-68
2021/12/11 02:00:44;;;;;;;19.83;15.07;;;5.40;99.90;;;;;;5014051;28;20042;-68
2021/12/11 02:03:16;;;;;;;19.95;14.15;;;5.50;99.90;;;;;;5014770;28;20073;-68
2021/12/11 02:05:43;;;;;;;18.15;14.20;;;5.50;99.90;;;;;;5014097;28;20158;-68
2021/12/11 02:08:14;;;;;;;18.75;13.95;;;5.60;99.90;;;;;;5014632;28;20121;-68
2021/12/11 02:10:53;;;;;;;18.23;14.30;;;5.60;99.90;;;;;;5014789;28;20381;-68
2021/12/11 02:13:35;;;;;;;20.05;14.07;;;5.80;99.90;;;;;;5013876;28;20040;-68
2021/12/11 02:16:01;;;;;;;20.00;13.25;;;5.90;99.90;;;;;;5013906;28;20030;-66
2021/12/11 02:18:34;;;;;;;14.57;10.05;;;6.00;99.90;;;;;;5014461;28;20092;-67
2021/12/11 02:21:25;;;;;;;18.02;8.55;;;6.40;99.90;;;;;;5013745;28;20022;-65
2021/12/11 02:23:57;;;;;;;22.27;8.20;;;6.70;99.90;;;;;;5014168;28;20048;-66
2021/12/11 02:26:25;;;;;;;13.67;6.73;;;6.70;99.90;;;;;;5014372;28;20029;-66
2021/12/11 02:28:58;;;;;;;13.45;6.10;;;6.80;99.90;;;;;;5013590;28;20369;-66
2021/12/11 02:31:39;;;;;;;17.15;5.95;;;6.70;99.90;;;;;;5014345;28;20034;-66
2021/12/11 02:34:28;;;;;;;12.90;4.57;;;6.80;99.90;;;;;;5014260;28;20040;-66
2021/12/11 02:36:59;;;;;;;12.75;4.07;;;7.00;99.90;;;;;;4997153;28;20108;-66
2021/12/11 02:39:33;;;;;;;12.97;4.23;;;7.20;99.90;;;;;;5014785;28;20049;-66
2021/12/11 02:42:09;;;;;;;11.43;3.90;;;7.20;99.90;;;;;;5013496;28;20035;-67
2021/12/11 02:44:42;;;;;;;12.63;4.10;;;7.20;99.90;;;;;;5013261;28;20057;-67
2021/12/11 02:47:17;;;;;;;;;;;7.20;99.90;;;;;;5013880;28;20034;-68
2021/12/11 02:49:45;;;;;;;8.20;3.17;;;7.30;99.90;;;;;;5014705;28;19915;-66
2021/12/11 02:53:09;;;;;;;7.50;2.70;;;7.30;99.90;;;;;;5014043;28;20052;-67
2021/12/11 02:55:56;;;;;;;9.30;2.85;;;7.40;99.90;;;;;;4997422;28;20102;-67
2021/12/11 02:58:28;;;;;;;7.13;3.00;;;7.40;99.90;;;;;;5013451;28;20030;-66
2021/12/11 03:00:55;;;;;;;;;;;7.50;99.90;;;;;;5013699;28;20033;-67
2021/12/11 03:03:31;;;;;;;7.60;3.22;;;7.40;99.90;;;;;;5013873;28;19909;-67
2021/12/11 03:06:10;;;;;;;5.50;3.17;;;7.40;99.90;;;;;;5013950;28;20042;-67
2021/12/11 03:08:36;;;;;;;5.75;3.20;;;7.40;99.90;;;;;;5014006;28;20041;-66
2021/12/11 03:11:09;;;;;;;5.60;4.00;;;7.40;99.90;;;;;;5014082;28;20022;-66
2021/12/11 03:13:38;;;;;;;;;;;7.50;99.90;;;;;;5013449;28;20030;-66
2021/12/11 03:16:05;;;;;;;6.32;3.90;;;7.50;99.90;;;;;;5013766;28;19923;-66
2021/12/11 03:18:31;;;;;;;5.78;4.30;;;7.50;99.90;;;;;;5013103;28;20048;-67
2021/12/11 03:21:00;;;;;;;5.38;3.78;;;7.50;99.90;;;;;;5013766;28;20402;-66
2021/12/11 03:23:26;;;;;;;6.13;4.15;;;7.40;99.90;;;;;;5013692;28;20107;-67
2021/12/11 03:25:53;;;;;;;5.82;4.43;;;7.30;99.90;;;;;;5013671;28;20091;-67
2021/12/11 03:28:21;;;;;;;8.27;5.13;;;7.40;99.90;;;;;;5013645;28;20059;-67
2021/12/11 03:30:56;;;;;;;7.18;5.55;;;7.40;99.90;;;;;;5012955;28;20034;-67
2021/12/11 03:33:24;;;;;;;7.68;5.55;;;7.40;99.90;;;;;;5012990;28;20068;-66
2021/12/11 03:35:50;;;;;;;7.70;5.70;;;7.50;99.90;;;;;;5013486;28;20102;-67
2021/12/11 03:38:17;;;;;;;6.70;5.80;;;7.60;99.90;;;;;;5013478;28;20108;-67
2021/12/11 03:40:43;;;;;;;7.78;5.63;;;7.50;99.90;;;;;;5013523;28;20313;-68
2021/12/11 03:43:14;;;;;;;9.23;6.95;;;7.50;99.90;;;;;;5013431;28;20029;-67
2021/12/11 03:45:43;;;;;;;8.23;6.43;;;7.50;99.90;;;;;;5013530;28;20042;-67
2021/12/11 03:48:18;;;;;;;11.43;6.78;;;7.60;99.90;;;;;;5013363;28;20139;-67
2021/12/11 03:50:45;;;;;;;10.40;7.05;;;7.50;99.90;;;;;;5012853;28;20041;-67
2021/12/11 03:53:12;;;;;;;9.18;7.10;;;7.60;99.90;;;;;;5013558;28;20038;-67
2021/12/11 03:55:45;;;;;;;9.95;7.80;;;7.60;99.90;;;;;;5013270;28;20172;-67
2021/12/11 03:58:11;;;;;;;11.43;8.00;;;7.60;99.90;;;;;;5013414;28;20040;-67
2021/12/11 04:01:19;;;;;;;9.93;7.35;;;7.60;99.90;;;;;;5013251;28;20491;-67
2021/12/11 04:03:47;;;;;;;12.30;8.18;;;7.60;99.90;;;;;;4995503;28;20087;-67
2021/12/11 04:06:15;;;;;;;11.07;7.53;;;7.80;99.90;;;;;;4995654;28;20556;-67
2021/12/11 04:08:44;;;;;;;10.20;8.07;;;7.70;99.90;;;;;;5012408;28;20042;-67
2021/12/11 04:11:23;;;;;;;11.18;7.50;;;7.70;99.90;;;;;;5015877;28;20026;-67
2021/12/11 04:13:53;;;;;;;10.82;7.45;;;7.80;99.90;;;;;;5016325;28;20026;-67
2021/12/11 04:16:19;;;;;;;11.20;7.35;;;7.80;99.90;;;;;;5016348;28;20291;-67
2021/12/11 04:18:45;;;;;;;9.25;7.13;;;7.70;99.90;;;;;;5015683;28;20042;-67
2021/12/11 04:21:12;;;;;;;14.40;7.40;;;7.70;99.90;;;;;;5016242;28;20103;-67
2021/12/11 04:23:38;;;;;;;12.65;7.68;;;7.70;99.90;;;;;;5015549;28;20041;-67
2021/12/11 04:26:05;;;;;;;13.45;7.40;;;7.80;99.90;;;;;;5015590;28;20354;-67
2021/12/11 04:28:34;;;;;;;12.85;7.20;;;7.80;99.90;;;;;;5015574;28;20038;-67
2021/12/11 04:31:05;;;;;;;12.13;7.15;;;7.80;99.90;;;;;;5015406;28;20034;-67
2021/12/11 04:33:33;;;;;;;13.10;7.60;;;7.70;99.90;;;;;;5016197;28;20446;-67
2021/12/11 04:36:00;;;;;;;14.98;6.97;;;7.70;99.90;;;;;;5016017;28;20038;-66
2021/12/11 04:38:26;;;;;;;10.50;5.93;;;7.70;99.90;;;;;;4982988;28;20038;-67
2021/12/11 04:40:56;;;;;;;12.52;6.20;;;7.60;99.90;;;;;;5016021;28;20030;-66
2021/12/11 04:43:24;;;;;;;13.23;5.70;;;7.40;99.90;;;;;;5015013;28;20120;-66
2021/12/11 04:45:52;;;;;;;9.55;5.10;;;7.30;99.90;;;;;;5015284;28;20038;-67
2021/12/11 04:51:06;;;;;;;11.43;5.45;;;7.10;99.90;;;;;;5015962;28;20052;-67
2021/12/11 05:06:47;;;;;;;16.38;5.10;;;7.20;99.90;;;;;;5015053;28;20375;-67
2021/12/11 05:12:27;;;;;;;18.75;4.57;;;7.20;99.90;;;;;;5014932;28;20341;-65
2021/12/11 05:14:53;;;;;;;15.50;3.88;;;7.30;99.90;;;;;;5015039;28;20386;-66
2021/12/11 05:17:20;;;;;;;16.00;3.95;;;7.40;99.90;;;;;;5015647;28;20099;-66
2021/12/11 05:19:47;;;;;;;15.15;3.17;;;7.40;99.90;;;;;;5016209;28;20026;-66
2021/12/11 05:22:14;;;;;;;18.40;2.97;;;7.30;99.90;;;;;;5015158;28;20402;-65
2021/12/11 05:24:43;;;;;;;15.82;4.00;;;7.30;99.90;;;;;;5015541;28;20049;-66
2021/12/11 05:27:10;;;;;;;11.60;3.00;;;7.20;99.90;;;;;;5015406;28;20030;-65
2021/12/11 05:29:36;;;;;;;18.27;3.40;;;7.10;99.90;;;;;;5014790;28;20035;-67
2021/12/11 05:32:04;;;;;;;16.13;3.17;;;7.10;99.90;;;;;;5014453;28;20429;-65
2021/12/11 05:34:31;;;;;;;17.95;2.85;;;7.20;99.90;;;;;;5015272;28;20302;-67
2021/12/11 05:36:56;;;;;;;20.35;2.90;;;7.10;99.90;;;;;;5014497;28;20034;-66
2021/12/11 05:39:22;;;;;;;14.02;2.35;;;7.20;99.90;;;;;;5014553;28;20414;-66
2021/12/11 05:41:50;;;;;;;12.18;2.17;;;7.30;99.90;;;;;;5015155;28;20030;-67
2021/12/11 05:44:18;;;;;;;13.23;2.65;;;7.20;99.90;;;;;;5014964;28;20042;-66
2021/12/11 05:46:45;;;;;;;18.73;2.53;;;7.20;99.90;;;;;;5015727;28;20264;-65
2021/12/11 05:49:12;;;;;;;16.60;2.50;;;7.30;99.90;;;;;;5015029;28;20347;-66
2021/12/11 05:51:43;;;;;;;17.10;2.85;;;7.40;99.90;;;;;;5015084;28;20057;-66
2021/12/11 05:54:14;;;;;;;16.15;2.42;;;7.40;99.90;;;;;;5014916;28;20276;-67
2021/12/11 05:56:41;;;;;;;10.88;2.05;;;7.20;99.90;;;;;;5014317;28;20030;-67
2021/12/11 05:59:09;;;;;;;14.05;2.53;;;7.00;99.90;;;;;;5014820;28;20095;-67
2021/12/11 06:01:55;;;;;;;17.55;2.60;;;7.00;99.90;;;;;;5014894;28;20029;-67
2021/12/11 06:04:26;;;;;;;13.45;2.55;;;7.00;99.90;;;;;;5014069;28;20038;-66
2021/12/11 06:06:54;;;;;;;21.35;2.35;;;6.90;99.90;;;;;;5014862;28;20042;-65
2021/12/11 06:09:23;;;;;;;21.52;2.72;;;6.80;99.90;;;;;;5014764;28;20057;-66
2021/12/11 06:11:51;;;;;;;15.00;2.55;;;6.70;99.90;;;;;;4997631;28;20315;-67
2021/12/11 06:14:19;;;;;;;14.15;2.20;;;6.70;99.90;;;;;;4997586;28;20033;-67
2021/12/11 06:16:46;;;;;;;14.43;2.20;;;6.70;99.90;;;;;;5015298;28;20026;-65
2021/12/11 06:19:13;;;;;;;16.80;1.95;;;6.70;99.90;;;;;;5014652;28;20045;-66
2021/12/11 06:21:39;;;;;;;16.27;2.95;;;6.80;99.90;;;;;;5014671;28;20065;-66
2021/12/11 06:24:05;;;;;;;18.75;2.67;;;6.60;99.90;;;;;;5014584;28;20065;-66
2021/12/11 06:26:31;;;;;;;22.25;2.78;;;6.60;99.90;;;;;;5014586;28;20030;-66
2021/12/11 06:28:58;;;;;;;18.27;3.00;;;6.60;99.90;;;;;;5013620;28;20402;-66
2021/12/11 06:31:24;;;;;;;11.95;2.20;;;6.70;99.90;;;;;;5013978;28;20026;-67
2021/12/11 06:33:52;;;;;;;17.23;2.20;;;6.60;99.90;;;;;;5013404;28;20049;-66
2021/12/11 06:36:19;;;;;;;15.27;1.95;;;6.60;99.90;;;;;;5014493;28;20030;-66
2021/12/11 06:38:49;;;;;;;13.98;2.45;;;6.50;99.90;;;;;;5014328;28;20026;-66
2021/12/11 06:41:19;;;;;;;16.48;3.22;;;6.40;99.90;;;;;;5014317;28;20103;-67
2021/12/11 06:43:45;;;;;;;16.42;2.33;;;6.50;99.90;;;;;;5014118;28;20050;-67
2021/12/11 06:46:11;;;;;;;16.67;2.40;;;6.50;99.90;;;;;;5014713;28;20042;-67
2021/12/11 06:48:37;;;;;;;16.95;2.55;;;6.30;99.90;;;;;;5013470;28;20038;-67
2021/12/11 06:51:04;;;;;;;17.80;2.88;;;6.20;99.90;;;;;;5014268;28;20046;-67
2021/12/11 06:53:52;;;;;;;19.00;2.42;;;6.20;99.90;;;;;;5013699;28;20406;-67
2021/12/11 06:56:19;;;;;;;13.85;2.95;;;6.20;99.90;;;;;;5014295;28;20360;-66
2021/12/11 06:58:46;;;;;;;21.67;3.47;;;6.10;99.90;;;;;;5014040;28;20354;-67
2021/12/11 07:01:11;;;;;;;18.73;3.28;;;6.00;99.90;;;;;;5014085;28;20247;-67
2021/12/11 07:03:40;;;;;;;18.35;3.17;;;6.00;99.90;;;;;;5013947;28;20032;-68
2021/12/11 07:06:06;;;;;;;15.70;3.60;;;6.00;99.90;;;;;;5014456;28;20120;-68
2021/12/11 07:08:32;;;;;;;21.00;3.75;;;6.00;99.90;;;;;;4996787;28;20037;-67
2021/12/11 07:10:59;;;;;;;18.25;4.10;;;5.90;99.90;;;;;;5013975;28;20041;-68
2021/12/11 07:13:26;;;;;;;13.68;3.40;;;5.90;99.90;;;;;;5013822;28;20395;-67
2021/12/11 07:15:52;;;;;;;17.65;3.50;;;5.90;99.90;;;;;;5013776;28;20026;-67
2021/12/11 07:18:19;;;;;;;27.08;3.53;;;5.80;99.90;;;;;;5013736;28;20018;-68
2021/12/11 07:20:45;;;;;;;18.65;3.78;;;5.70;99.90;;;;;;5013745;28;20049;-67
2021/12/11 07:23:11;;;;;;;17.77;4.05;;;5.80;99.90;;;;;;5013604;28;20061;-68
2021/12/11 07:25:48;;;;;;;22.45;4.50;;;5.80;99.90;;;;;;5013705;28;20121;-67
2021/12/11 07:28:15;;;;;;;15.70;3.60;;;5.80;99.90;;;;;;5013942;28;20306;-68
2021/12/11 07:30:45;;;;;;;20.20;3.78;;;5.70;99.90;;;;;;5013412;28;20049;-68
2021/12/11 07:33:12;;;;;;;18.27;4.05;;;5.70;99.90;;;;;;5013498;28;20030;-65
2021/12/11 07:35:40;;;;;;;20.52;4.30;;;5.60;99.90;;;;;;4996609;28;20321;-67
2021/12/11 07:38:07;;;;;;;19.23;3.97;;;5.80;99.90;;;;;;5013522;28;20036;-66
2021/12/11 07:40:39;;;;;;;15.82;3.72;;;5.70;99.90;;;;;;5013392;28;20042;-66
2021/12/11 07:43:07;;;;;;;25.90;4.13;;;5.70;99.90;;;;;;5013488;28;20091;-66
2021/12/11 07:45:34;;;;;;;15.55;3.72;;;5.70;99.90;;;;;;5016577;28;20073;-67
2021/12/11 07:48:01;;;;;;;17.45;3.95;;;5.80;99.90;;;;;;5016007;28;20314;-67
2021/12/11 07:50:28;;;;;;;21.08;3.75;;;5.80;99.90;;;;;;5016123;28;20202;-68
2021/12/11 07:52:54;;;;;;;20.35;3.35;;;5.70;99.90;;;;;;5016717;28;20321;-67
2021/12/11 07:55:21;;;;;;;22.75;3.97;;;5.70;99.90;;;;;;5016555;28;20302;-68
2021/12/11 07:57:47;;;;;;;15.02;3.92;;;5.70;99.90;;;;;;5017122;28;20022;-67
2021/12/11 08:00:17;;;;;;;18.20;3.72;;;5.70;99.90;;;;;;5016076;28;20041;-67
2021/12/11 08:02:44;;;;;;;17.48;3.67;;;5.80;99.90;;;;;;5016072;28;20025;-67
2021/12/11 08:05:11;;;;;;;15.98;3.90;;;5.80;99.90;;;;;;5015895;28;20052;-68
2021/12/11 08:07:37;;;;;;;20.45;4.20;;;5.80;99.90;;;;;;5015744;28;20086;-68
2021/12/11 08:10:07;;;;;;;19.55;3.88;;;5.90;99.90;;;;;;5015707;28;20033;-67
2021/12/11 08:12:33;;;;;;;18.10;4.40;;;5.90;99.90;;;;;;5015675;28;20328;-67
2021/12/11 08:14:59;;;;;;;21.23;4.78;;;6.20;99.90;;;;;;5016303;28;20041;-67
2021/12/11 08:17:25;;;;;;;15.13;4.68;;;6.20;99.90;;;;;;5015938;28;20042;-67
2021/12/11 08:19:51;;;;;;;22.98;4.03;;;6.20;99.90;;;;;;5016141;28;20049;-67
2021/12/11 08:22:16;;;;;;;22.45;5.00;;;6.40;99.90;;;;;;5016829;28;20030;-67
2021/12/11 08:24:42;;;;;;;21.45;4.63;;;6.40;99.90;;;;;;5015580;28;20060;-67
2021/12/11 08:27:20;;;;;;;20.73;5.07;;;6.50;99.90;;;;;;5015536;28;20038;-67
2021/12/11 08:29:49;;;;;;;21.08;4.57;;;6.60;99.90;;;;;;5015560;28;20042;-68
2021/12/11 08:32:16;;;;;;;18.00;5.10;;;6.60;99.90;;;;;;5016762;28;20026;-67
2021/12/11 08:34:43;;;;;;;15.35;4.10;;;6.60;99.90;;;;;;5016390;28;20483;-68
2021/12/11 08:37:13;;;;;;;22.80;4.97;;;6.80;99.90;;;;;;5015418;28;20026;-67
2021/12/11 08:39:41;;;;;;;13.95;3.97;;;6.90;99.90;;;;;;5015292;28;20022;-67
2021/12/11 08:42:09;;;;;;;15.50;3.88;;;6.90;99.90;;;;;;5015997;28;20026;-67
2021/12/11 08:44:38;;;;;;;19.25;4.40;;;6.90;99.90;;;;;;5015883;28;20077;-67
2021/12/11 08:47:10;;;;;;;18.65;4.53;;;6.90;99.90;;;;;;5016004;28;20329;-67
2021/12/11 08:49:39;;;;;;;17.35;4.55;;;6.90;99.90;;;;;;5016038;28;20044;-68
2021/12/11 08:52:26;;;;;;;14.55;3.58;;;6.80;99.90;;;;;;5016001;28;20068;-68
2021/12/11 08:54:54;;;;;;;14.20;3.70;;;6.60;99.90;;;;;;5016555;28;20378;-67
2021/12/11 08:57:24;;;;;;;11.98;3.67;;;6.70;99.90;;;;;;5014876;28;20026;-68
2021/12/11 08:59:54;;;;;;;19.70;4.15;;;6.60;99.90;;;;;;5015696;28;20060;-67
2021/12/11 09:02:34;;;;;;;18.13;3.75;;;6.70;99.90;;;;;;5016068;28;20349;-67
2021/12/11 09:05:23;;;;;;;15.90;4.78;;;6.70;99.90;;;;;;5015457;28;20030;-67
2021/12/11 09:08:12;;;;;;;12.02;3.67;;;6.60;99.90;;;;;;5015840;28;20099;-67
2021/12/11 09:10:40;;;;;;;15.45;3.72;;;6.60;99.90;;;;;;5015072;28;20110;-66
2021/12/11 09:13:15;;;;;;;10.07;4.25;;;6.50;99.90;;;;;;5014846;28;20080;-66
2021/12/11 09:15:50;;;;;;;17.00;4.88;;;6.60;99.90;;;;;;5015731;28;20037;-65
2021/12/11 09:18:20;;;;;;;19.48;4.85;;;6.60;99.90;;;;;;5015043;28;20247;-69
2021/12/11 09:21:01;;;;;;;15.57;4.85;;;6.50;99.90;;;;;;5015637;28;20030;-68
2021/12/11 09:23:42;;;;;;;14.95;4.85;;;6.20;99.90;;;;;;5015483;28;20030;-67
2021/12/11 09:26:08;;;;;;;22.40;5.47;;;6.20;99.90;;;;;;5015447;28;20049;-66
2021/12/11 09:28:45;;;;;;;19.83;5.25;;;6.30;99.90;;;;;;5015262;28;20026;-66
2021/12/11 09:31:25;;;;;;;18.77;5.50;;;6.30;99.90;;;;;;5015400;28;20022;-66
2021/12/11 09:33:59;;;;;;;13.98;5.07;;;6.40;99.90;;;;;;5015320;28;20383;-65
2021/12/11 09:36:30;;;;;;;19.15;5.85;;;6.50;99.90;;;;;;5015256;28;20033;-66
2021/12/11 09:39:20;;;;;;;17.13;6.25;;;6.60;99.90;;;;;;5014523;28;20052;-66
2021/12/11 09:41:45;;;;;;;19.88;5.68;;;6.80;99.90;;;;;;5015657;28;20030;-66
2021/12/11 09:44:11;;;;;;;14.77;4.85;;;7.00;99.90;;;;;;5014307;28;20137;-66
2021/12/11 09:46:48;;;;;;;20.38;5.43;;;7.20;99.90;;;;;;4998113;28;20113;-65
2021/12/11 09:49:19;;;;;;;18.48;5.00;;;7.50;99.90;;;;;;5015458;28;20286;-65
2021/12/11 09:51:48;;;;;;;12.70;5.03;;;7.90;99.90;;;;;;5014813;28;20040;-66
2021/12/11 09:54:19;;;;;;;16.90;4.72;;;8.30;99.90;;;;;;5014129;28;20294;-66
2021/12/11 09:56:57;;;;;;;17.88;5.00;;;8.40;99.90;;;;;;5015040;28;20030;-65
2021/12/11 09:59:25;;;;;;;22.65;5.68;;;8.60;99.90;;;;;;5015592;28;20022;-66
2021/12/11 10:01:58;;;;;;;15.35;5.55;;;8.50;99.90;;;;;;5015004;28;20050;-66
2021/12/11 10:04:31;;;;;;;17.85;5.30;;;8.50;99.90;;;;;;5014959;28;20086;-66
2021/12/11 10:09:47;;;;;;;16.95;5.60;;;8.30;99.90;;;;;;5014810;28;20034;-65
2021/12/11 10:12:15;;;;;;;14.88;5.00;;;8.30;99.90;;;;;;5014826;28;20116;-66
2021/12/11 10:14:47;;;;;;;16.45;5.95;;;8.30;99.90;;;;;;5014676;28;20030;-66
2021/12/11 10:17:20;;;;;;;20.27;6.70;;;8.40;99.90;;;;;;5014115;28;20279;-66
2021/12/11 10:19:46;;;;;;;13.27;4.93;;;8.20;99.90;;;;;;5014780;28;20273;-65
2021/12/11 10:22:18;;;;;;;16.70;5.30;;;8.20;99.90;;;;;;5014109;28;20029;-65
2021/12/11 10:24:45;;;;;;;14.88;5.05;;;8.30;99.90;;;;;;5014660;28;20049;-65
2021/12/11 10:27:18;;;;;;;17.00;4.97;;;8.50;99.90;;;;;;4997855;28;20103;-65
2021/12/11 10:29:45;;;;;;;12.48;4.63;;;8.60;99.90;;;;;;5014527;28;20109;-65
2021/12/11 10:32:16;;;;;;;14.85;5.13;;;8.90;99.90;;;;;;5014463;28;20022;-65
2021/12/11 10:34:46;;;;;;;19.40;5.72;;;9.00;99.90;;;;;;5014651;28;20034;-66
2021/12/11 10:37:27;;;;;;;15.02;4.88;;;8.90;99.90;;;;;;5014910;28;20350;-65
2021/12/11 10:39:55;;;;;;;15.18;4.72;;;8.80;99.90;;;;;;5014817;28;20073;-65
2021/12/11 10:42:21;;;;;;;15.95;5.15;;;8.80;99.90;;;;;;5014249;28;20038;-66
2021/12/11 10:44:51;;;;;;;15.00;4.60;;;8.70;99.90;;;;;;5013448;28;20284;-65
2021/12/11 10:47:36;;;;;;;13.05;3.88;;;9.30;99.90;;;;;;5074148;28;20912;-66
2021/12/11 10:50:09;;;;;;;12.98;3.72;;;10.10;99.90;;;;;;5073812;28;20365;-66
2021/12/11 10:52:36;;;;;;;12.57;3.85;;;10.80;99.90;;;;;;5074156;28;20040;-66
2021/12/11 10:55:07;;;;;;;11.07;3.60;;;11.20;99.90;;;;;;5074030;28;20347;-66
2021/12/11 10:57:33;;;;;;;14.52;3.85;;;11.20;99.90;;;;;;5074062;28;20024;-66
2021/12/11 11:00:00;;;;;;;10.40;3.33;;;11.20;99.90;;;;;;5074023;28;20044;-67
2021/12/11 11:02:30;;;;;;;10.93;3.75;;;11.20;99.90;;;;;;5074040;28;20033;-67
2021/12/11 11:05:05;;;;;;;12.32;3.80;;;11.10;99.90;;;;;;5074156;28;20029;-67
2021/12/11 11:07:34;;;;;;;11.65;3.65;;;10.60;99.90;;;;;;5073728;28;20028;-66
2021/12/11 11:10:03;;;;;;;14.23;3.88;;;10.50;99.90;;;;;;5074167;28;20059;-66
2021/12/11 11:12:32;;;;;;;13.88;3.88;;;11.00;99.90;;;;;;5073719;28;20052;-67
2021/12/11 11:14:59;;;;;;;15.73;3.55;;;11.10;99.90;;;;;;5073547;28;20304;-66
2021/12/11 11:17:31;;;;;;;11.80;3.90;;;11.40;99.90;;;;;;5072890;28;20032;-65
2021/12/11 11:19:58;;;;;;;12.70;3.38;;;11.20;99.90;;;;;;5072782;28;20029;-65
2021/12/11 11:22:31;;;;;;;14.65;4.05;;;11.10;99.90;;;;;;5073483;28;20085;-66
2021/12/11 11:25:21;;;;;;;15.05;3.92;;;10.90;99.90;;;;;;5072756;28;20033;-64
2021/12/11 11:27:52;;;;;;;12.45;4.00;;;11.10;99.90;;;;;;5073423;28;20036;-65
2021/12/11 11:30:21;;;;;;;11.05;3.78;;;11.30;99.90;;;;;;5072629;28;20104;-66
2021/12/11 11:32:48;;;;;;;12.52;4.10;;;11.30;99.90;;;;;;5073204;28;20029;-66
2021/12/11 11:35:17;;;;;;;18.83;4.38;;;10.90;99.90;;;;;;5073169;28;20024;-66
2021/12/11 11:37:44;;;;;;;12.77;4.40;;;10.80;99.90;;;;;;5073117;28;20025;-65
2021/12/11 11:40:15;;;;;;;16.88;4.63;;;10.60;99.90;;;;;;5072285;28;20036;-66
2021/12/11 11:42:42;;;;;;;18.67;4.63;;;10.50;99.90;;;;;;5072463;28;20044;-67
2021/12/11 11:45:12;;;;;;;16.55;4.43;;;10.40;99.90;;;;;;5072589;28;20079;-65
2021/12/11 11:47:40;;;;;;;14.68;4.40;;;10.10;99.90;;;;;;5089050;28;20025;-67
2021/12/11 11:50:12;;;;;;;14.35;5.15;;;10.00;99.90;;;;;;5072224;28;20029;-67
2021/12/11 11:52:40;;;;;;;14.50;5.65;;;10.00;99.90;;;;;;5072120;28;20043;-66
2021/12/11 11:55:11;;;;;;;16.95;5.28;;;9.70;99.90;;;;;;5072799;28;20025;-67
2021/12/11 11:57:41;;;;;;;14.80;5.13;;;9.30;99.90;;;;;;5066577;28;20108;-66
2021/12/11 12:00:24;;;;;;;14.18;4.97;;;9.40;99.90;;;;;;5059943;28;20091;-66
2021/12/11 12:02:50;;;;;;;15.50;5.43;;;9.70;99.90;;;;;;5058816;28;20032;-66
2021/12/11 12:05:16;;;;;;;12.63;4.75;;;9.80;99.90;;;;;;5059441;28;20025;-66
2021/12/11 12:07:42;;;;;;;13.45;4.68;;;9.80;99.90;;;;;;5059874;28;20107;-66
2021/12/11 12:10:13;;;;;;;15.55;5.28;;;9.70;99.90;;;;;;5058581;28;20025;-66
2021/12/11 12:12:39;;;;;;;18.05;5.03;;;9.80;99.90;;;;;;5059316;28;20021;-67
2021/12/11 12:15:09;;;;;;;15.55;4.93;;;9.80;99.90;;;;;;5058480;28;20060;-66
2021/12/11 12:17:38;;;;;;;13.98;4.97;;;9.90;99.90;;;;;;5058500;28;20029;-66
2021/12/11 12:20:08;;;;;;;11.70;3.97;;;9.90;99.90;;;;;;5059261;28;20036;-66
2021/12/11 12:22:34;;;;;;;13.35;4.20;;;10.00;99.90;;;;;;5058921;28;20017;-66
2021/12/11 12:25:02;;;;;;;15.85;4.47;;;10.20;99.90;;;;;;5059610;28;20048;-67
2021/12/11 12:27:31;;;;;;;17.38;4.90;;;10.30;99.90;;;;;;5058185;28;20366;-67
2021/12/11 12:29:59;;;;;;;16.95;4.68;;;10.40;99.90;;;;;;5058958;28;20108;-67
2021/12/11 12:32:32;;;;;;;13.25;4.68;;;10.50;99.90;;;;;;5059240;28;20093;-67
2021/12/11 12:35:02;;;;;;;7.82;3.95;;;10.50;99.90;;;;;;5059447;28;20129;-66
2021/12/11 12:37:29;;;;;;;13.18;4.38;;;10.50;99.90;;;;;;5058016;28;20048;-67
2021/12/11 12:39:57;;;;;;;19.33;4.60;;;10.40;99.90;;;;;;5057980;28;20021;-67
2021/12/11 12:42:36;;;;;;;8.52;3.30;;;10.20;99.90;;;;;;5058816;28;20049;-66
2021/12/11 12:45:17;;;;;;;12.43;3.03;;;9.80;99.90;;;;;;5057936;28;20036;-67
2021/12/11 12:47:51;;;;;;;9.38;2.88;;;9.80;99.90;;;;;;5058779;28;20077;-66
2021/12/11 12:50:22;;;;;;;13.20;3.67;;;9.60;99.90;;;;;;5058663;28;20043;-66
2021/12/11 12:52:48;;;;;;;13.68;3.35;;;9.60;99.90;;;;;;5058407;28;20029;-66
2021/12/11 12:55:34;;;;;;;11.85;3.00;;;9.50;99.90;;;;;;5057749;28;20450;-66
2021/12/11 12:58:03;;;;;;;16.73;4.10;;;9.50;99.90;;;;;;5057720;28;20103;-65
2021/12/11 13:00:42;;;;;;;10.68;3.00;;;9.60;99.90;;;;;;5058239;28;20112;-66
2021/12/11 13:03:13;;;;;;;12.48;3.13;;;9.60;99.90;;;;;;5058229;28;20028;-65
2021/12/11 13:05:44;;;;;;;11.60;3.00;;;9.60;99.90;;;;;;5058601;28;20041;-65
2021/12/11 13:08:14;;;;;;;10.73;2.95;;;9.70;99.90;;;;;;5058225;28;20270;-65
2021/12/11 13:10:55;;;;;;;16.75;2.70;;;9.60;99.90;;;;;;5057301;28;20025;-64
2021/12/11 13:13:24;;;;;;;16.60;3.33;;;9.50;99.90;;;;;;5058357;28;20025;-65
2021/12/11 13:15:58;;;;;;;7.97;2.55;;;9.50;99.90;;;;;;5058185;28;20112;-66
2021/12/11 13:18:30;;;;;;;14.30;3.28;;;9.40;99.90;;;;;;5041159;28;20032;-66
2021/12/11 13:21:05;;;;;;;12.30;3.67;;;9.40;99.90;;;;;;5058278;28;20296;-66
2021/12/11 13:23:34;;;;;;;11.82;3.22;;;9.30;99.90;;;;;;5057231;28;20384;-65
2021/12/11 13:26:02;;;;;;;11.07;3.30;;;9.30;99.90;;;;;;5057733;28;20032;-66